createdAt,value
2023-02-14T00:04:51.015Z,589.00
2023-02-14T00:05:50.971Z,592.00
2023-02-14T00:06:51.016Z,596.00
2023-02-14T00:07:51.079Z,594.00
2023-02-14T00:08:51.128Z,598.00
2023-02-14T00:09:51.145Z,598.00
2023-02-14T00:10:51.162Z,597.00
2023-02-14T00:11:51.213Z,594.00
2023-02-14T00:12:51.225Z,597.00
2023-02-14T00:13:51.314Z,596.00
2023-02-14T00:14:51.330Z,599.00
2023-02-14T00:15:51.384Z,592.00
2023-02-14T00:16:51.373Z,594.00
2023-02-14T00:17:51.421Z,589.00
2023-02-14T00:18:51.438Z,600.00
2023-02-14T00:19:51.489Z,616.00
2023-02-14T00:20:51.531Z,624.00
2023-02-14T00:21:51.602Z,677.00
2023-02-14T00:22:51.595Z,753.00
2023-02-14T00:23:51.641Z,851.00
2023-02-14T00:24:51.659Z,900.00
2023-02-14T00:25:51.706Z,997.00
2023-02-14T00:26:51.740Z,1035.00
2023-02-14T00:27:51.789Z,1095.00
2023-02-14T00:28:51.843Z,1105.00
2023-02-14T00:29:51.900Z,1115.00
2023-02-14T00:30:51.993Z,1111.00
2023-02-14T00:31:52.023Z,1103.00
2023-02-14T00:32:51.960Z,1100.00
2023-02-14T00:33:51.993Z,1094.00
2023-02-14T00:34:52.032Z,1092.00
2023-02-14T00:35:52.095Z,1086.00
2023-02-14T00:36:52.114Z,1070.00
2023-02-14T00:37:52.157Z,1079.00
2023-02-14T00:38:52.213Z,1072.00
2023-02-14T00:39:52.210Z,1055.00
2023-02-14T00:40:52.260Z,1043.00
2023-02-14T00:41:52.317Z,1071.00
2023-02-14T00:42:52.347Z,1065.00
2023-02-14T00:43:52.398Z,1065.00
2023-02-14T00:44:52.445Z,1073.00
2023-02-14T00:45:52.504Z,1070.00
2023-02-14T00:46:52.551Z,1064.00
2023-02-14T00:47:52.577Z,1069.00
2023-02-14T00:48:52.606Z,1073.00
2023-02-14T00:49:52.640Z,1081.00
2023-02-14T00:50:52.701Z,1070.00
2023-02-14T00:51:52.731Z,1081.00
2023-02-14T00:52:52.762Z,1065.00
2023-02-14T00:53:52.805Z,1069.00
2023-02-14T00:54:52.842Z,1046.00
2023-02-14T00:55:52.881Z,1039.00
2023-02-14T00:56:52.949Z,1035.00
2023-02-14T00:57:52.966Z,1028.00
2023-02-14T00:58:53.000Z,1024.00
2023-02-14T00:59:53.023Z,1020.00
2023-02-14T01:00:53.127Z,1004.00
2023-02-14T01:01:53.116Z,995.00
2023-02-14T01:02:53.340Z,999.00
2023-02-14T01:03:53.229Z,999.00
2023-02-14T01:04:53.238Z,1005.00
2023-02-14T01:05:53.268Z,1000.00
2023-02-14T01:06:53.320Z,1000.00
2023-02-14T01:07:53.360Z,985.00
2023-02-14T01:08:53.399Z,974.00
2023-02-14T01:09:53.416Z,972.00
2023-02-14T01:10:53.502Z,968.00
2023-02-14T01:11:53.510Z,967.00
2023-02-14T01:12:53.556Z,959.00
2023-02-14T01:13:53.607Z,945.00
2023-02-14T01:14:53.611Z,952.00
2023-02-14T01:15:53.648Z,945.00
2023-02-14T01:16:53.728Z,924.00
2023-02-14T01:17:53.710Z,923.00
2023-02-14T01:18:53.799Z,924.00
2023-02-14T01:19:53.828Z,901.00
2023-02-14T01:20:53.881Z,906.00
2023-02-14T01:21:53.881Z,912.00
2023-02-14T01:22:53.919Z,902.00
2023-02-14T01:23:53.963Z,886.00
2023-02-14T01:24:54.006Z,876.00
2023-02-14T01:25:54.059Z,883.00
2023-02-14T01:26:54.108Z,881.00
2023-02-14T01:27:54.145Z,864.00
2023-02-14T01:28:54.179Z,878.00
2023-02-14T01:29:54.271Z,859.00
2023-02-14T01:30:54.318Z,840.00
2023-02-14T01:31:54.352Z,838.00
2023-02-14T01:32:54.333Z,834.00
2023-02-14T01:33:54.367Z,835.00
2023-02-14T01:34:54.405Z,842.00
2023-02-14T01:36:53.686Z,500.00
2023-02-14T01:37:53.692Z,500.00
2023-02-14T01:38:53.698Z,500.00
2023-02-14T01:39:53.708Z,500.00
2023-02-14T01:40:53.691Z,500.00
2023-02-14T01:41:53.665Z,503.00
2023-02-14T01:42:53.699Z,504.00
2023-02-14T01:43:53.676Z,502.00
2023-02-14T01:44:53.670Z,506.00
2023-02-14T01:45:53.703Z,502.00
2023-02-14T01:46:53.652Z,501.00
2023-02-14T01:47:53.654Z,505.00
2023-02-14T01:48:53.652Z,506.00
2023-02-14T01:49:53.642Z,501.00
2023-02-14T01:50:53.620Z,500.00
2023-02-14T01:51:53.625Z,508.00
2023-02-14T01:52:53.619Z,508.00
2023-02-14T02:01:53.601Z,508.00
2023-02-14T02:02:53.522Z,507.00
2023-02-14T02:03:53.521Z,506.00
2023-02-14T02:04:53.509Z,503.00
2023-02-14T02:05:53.530Z,500.00
2023-02-14T02:06:53.522Z,505.00
2023-02-14T02:07:53.491Z,510.00
2023-02-14T02:08:53.518Z,503.00
2023-02-14T02:09:53.462Z,501.00
2023-02-14T02:10:53.503Z,504.00
2023-02-14T02:11:53.487Z,502.00
2023-02-14T02:12:53.471Z,504.00
2023-02-14T02:13:53.462Z,504.00
2023-02-14T02:14:53.488Z,509.00
2023-02-14T02:15:53.463Z,505.00
2023-02-14T02:16:53.503Z,501.00
2023-02-14T02:17:53.424Z,503.00
2023-02-14T02:18:53.419Z,503.00
2023-02-14T02:19:53.413Z,507.00
2023-02-14T02:20:53.420Z,503.00
2023-02-14T02:21:53.376Z,509.00
2023-02-14T02:22:53.406Z,507.00
2023-02-14T02:23:53.428Z,505.00
2023-02-14T02:24:53.368Z,510.00
2023-02-14T02:25:53.453Z,508.00
2023-02-14T02:26:53.376Z,507.00
2023-02-14T02:27:53.356Z,501.00
2023-02-14T02:28:53.376Z,504.00
2023-02-14T02:29:53.401Z,507.00
2023-02-14T02:30:53.411Z,508.00
2023-02-14T02:31:53.494Z,508.00
2023-02-14T02:32:53.330Z,501.00
2023-02-14T02:33:53.331Z,505.00
2023-02-14T02:34:53.316Z,503.00
2023-02-14T02:35:53.361Z,502.00
2023-02-14T02:36:53.360Z,505.00
2023-02-14T02:37:53.435Z,503.00
2023-02-14T02:38:53.504Z,506.00
2023-02-14T02:39:53.561Z,504.00
2023-02-14T02:40:53.582Z,506.00
2023-02-14T02:41:53.596Z,506.00
2023-02-14T02:42:53.660Z,509.00
2023-02-14T02:43:53.709Z,510.00
2023-02-14T02:44:53.743Z,511.00
2023-02-14T02:45:53.847Z,503.00
2023-02-14T02:46:53.821Z,503.00
2023-02-14T02:47:53.869Z,503.00
2023-02-14T02:48:53.891Z,504.00
2023-02-14T02:49:53.972Z,505.00
2023-02-14T02:50:53.952Z,505.00
2023-02-14T02:51:54.034Z,507.00
2023-02-14T02:52:54.064Z,504.00
2023-02-14T02:53:54.118Z,504.00
2023-02-14T02:54:54.145Z,506.00
2023-02-14T02:55:54.163Z,506.00
2023-02-14T02:56:54.206Z,506.00
2023-02-14T02:57:54.249Z,502.00
2023-02-14T02:58:54.548Z,504.00
2023-02-14T02:59:54.318Z,505.00
2023-02-14T03:00:54.334Z,500.00
2023-02-14T03:01:54.406Z,505.00
2023-02-14T03:02:54.432Z,506.00
2023-02-14T03:03:54.475Z,505.00
2023-02-14T03:04:54.668Z,501.00
2023-02-14T03:05:54.534Z,506.00
2023-02-14T03:06:54.564Z,506.00
2023-02-14T03:07:54.641Z,503.00
2023-02-14T03:08:54.663Z,500.00
2023-02-14T03:09:54.684Z,500.00
2023-02-14T03:10:54.712Z,503.00
2023-02-14T03:11:54.757Z,502.00
2023-02-14T03:12:54.766Z,504.00
2023-02-14T03:13:54.792Z,502.00
2023-02-14T03:14:54.863Z,500.00
2023-02-14T03:15:55.007Z,506.00
2023-02-14T03:16:54.919Z,500.00
2023-02-14T03:17:54.924Z,508.00
2023-02-14T03:18:54.916Z,507.00
2023-02-14T03:19:54.974Z,505.00
2023-02-14T03:20:55.024Z,504.00
2023-02-14T03:21:55.043Z,506.00
2023-02-14T03:22:55.060Z,508.00
2023-02-14T03:23:55.077Z,501.00
2023-02-14T03:24:55.130Z,498.00
2023-02-14T03:25:55.119Z,511.00
2023-02-14T03:26:55.154Z,505.00
2023-02-14T03:27:55.189Z,503.00
2023-02-14T03:28:55.226Z,503.00
2023-02-14T03:29:55.280Z,505.00
2023-02-14T03:30:55.330Z,511.00
2023-02-14T03:31:55.384Z,509.00
2023-02-14T03:32:55.328Z,502.00
2023-02-14T03:33:55.390Z,507.00
2023-02-14T03:34:55.377Z,500.00
2023-02-14T03:35:55.397Z,511.00
2023-02-14T03:36:55.409Z,509.00
2023-02-14T03:37:55.475Z,509.00
2023-02-14T03:38:55.468Z,507.00
2023-02-14T03:39:55.510Z,510.00
2023-02-14T03:40:55.556Z,507.00
2023-02-14T03:41:55.568Z,506.00
2023-02-14T03:42:55.608Z,505.00
2023-02-14T03:43:55.646Z,503.00
2023-02-14T03:44:55.779Z,507.00
2023-02-14T03:45:55.754Z,501.00
2023-02-14T03:46:55.741Z,506.00
2023-02-14T03:47:55.739Z,505.00
2023-02-14T03:48:55.814Z,507.00
2023-02-14T03:49:55.819Z,502.00
2023-02-14T03:51:55.909Z,508.00
2023-02-14T03:52:55.934Z,509.00
2023-02-14T03:53:55.983Z,505.00
2023-02-14T03:54:56.001Z,506.00
2023-02-14T03:55:56.058Z,509.00
2023-02-14T03:56:56.063Z,500.00
2023-02-14T03:57:56.083Z,502.00
2023-02-14T03:58:56.121Z,509.00
2023-02-14T03:59:56.136Z,509.00
2023-02-14T04:00:56.178Z,509.00
2023-02-14T04:01:56.209Z,505.00
2023-02-14T04:02:56.394Z,502.00
2023-02-14T04:03:56.257Z,504.00
2023-02-14T04:04:56.267Z,500.00
2023-02-14T04:05:56.292Z,512.00
2023-02-14T04:06:56.314Z,511.00
2023-02-14T04:07:56.337Z,508.00
2023-02-14T04:08:56.403Z,513.00
2023-02-14T04:09:56.402Z,508.00
2023-02-14T04:10:56.502Z,507.00
2023-02-14T04:11:56.472Z,501.00
2023-02-14T04:12:56.451Z,508.00
2023-02-14T04:13:56.472Z,506.00
2023-02-14T04:14:56.551Z,500.00
2023-02-14T04:15:56.591Z,510.00
2023-02-14T04:16:56.573Z,506.00
2023-02-14T04:17:56.602Z,504.00
2023-02-14T04:18:56.615Z,506.00
2023-02-14T04:19:56.633Z,505.00
2023-02-14T04:20:56.711Z,512.00
2023-02-14T04:21:56.692Z,509.00
2023-02-14T04:22:56.714Z,504.00
2023-02-14T04:23:56.749Z,506.00
2023-02-14T04:24:56.743Z,507.00
2023-02-14T04:25:56.830Z,509.00
2023-02-14T04:26:56.830Z,509.00
2023-02-14T04:27:56.970Z,511.00
2023-02-14T04:28:56.880Z,501.00
2023-02-14T04:29:57.019Z,503.00
2023-02-14T04:30:57.108Z,509.00
2023-02-14T04:31:57.062Z,510.00
2023-02-14T04:32:56.991Z,506.00
2023-02-14T04:33:57.076Z,516.00
2023-02-14T04:34:57.076Z,507.00
2023-02-14T04:35:57.102Z,509.00
2023-02-14T04:36:57.135Z,509.00
2023-02-14T04:37:57.140Z,512.00
2023-02-14T04:38:57.217Z,509.00
2023-02-14T04:39:57.242Z,515.00
2023-02-14T04:40:57.535Z,502.00
2023-02-14T04:41:57.282Z,506.00
2023-02-14T04:42:57.317Z,507.00
2023-02-14T04:43:57.327Z,508.00
2023-02-14T04:44:57.331Z,506.00
2023-02-14T04:45:57.362Z,505.00
2023-02-14T04:46:57.367Z,508.00
2023-02-14T04:47:57.443Z,511.00
2023-02-14T04:48:57.416Z,508.00
2023-02-14T04:49:57.449Z,506.00
2023-02-14T04:50:57.581Z,511.00
2023-02-14T04:51:57.542Z,506.00
2023-02-14T04:52:57.566Z,505.00
2023-02-14T04:53:57.596Z,513.00
2023-02-14T04:54:57.585Z,508.00
2023-02-14T04:55:57.608Z,512.00
2023-02-14T04:56:57.601Z,509.00
2023-02-14T04:57:57.665Z,516.00
2023-02-14T04:58:57.652Z,506.00
2023-02-14T04:59:57.666Z,507.00
2023-02-14T05:00:58.129Z,508.00
2023-02-14T05:01:57.747Z,502.00
2023-02-14T05:02:57.749Z,508.00
2023-02-14T05:03:58.107Z,517.00
2023-02-14T05:04:57.798Z,513.00
2023-02-14T05:05:57.857Z,509.00
2023-02-14T05:06:57.913Z,507.00
2023-02-14T05:07:57.885Z,507.00
2023-02-14T05:08:57.961Z,508.00
2023-02-14T05:09:57.956Z,511.00
2023-02-14T05:10:58.240Z,506.00
2023-02-14T05:11:57.982Z,508.00
2023-02-14T05:12:58.059Z,504.00
2023-02-14T05:13:58.053Z,510.00
2023-02-14T05:14:58.070Z,510.00
2023-02-14T05:15:58.130Z,508.00
2023-02-14T05:16:58.161Z,505.00
2023-02-14T05:17:58.183Z,506.00
2023-02-14T05:18:58.227Z,507.00
2023-02-14T05:19:58.244Z,509.00
2023-02-14T05:20:58.655Z,507.00
2023-02-14T05:21:58.313Z,507.00
2023-02-14T05:22:58.323Z,511.00
2023-02-14T05:23:58.388Z,505.00
2023-02-14T05:24:58.440Z,507.00
2023-02-14T05:25:58.460Z,506.00
2023-02-14T05:26:58.525Z,507.00
2023-02-14T05:27:58.523Z,507.00
2023-02-14T05:28:58.578Z,509.00
2023-02-14T05:29:58.648Z,509.00
2023-02-14T05:30:59.222Z,505.00
2023-02-14T05:31:58.760Z,510.00
2023-02-14T05:32:58.725Z,503.00
2023-02-14T05:33:58.734Z,508.00
2023-02-14T05:35:00.951Z,513.00
2023-02-14T05:35:58.839Z,511.00
2023-02-14T05:36:58.838Z,506.00
2023-02-14T05:37:58.888Z,508.00
2023-02-14T05:38:58.926Z,504.00
2023-02-14T05:39:58.954Z,510.00
2023-02-14T05:40:59.376Z,508.00
2023-02-14T05:41:59.483Z,518.00
2023-02-14T05:42:59.138Z,514.00
2023-02-14T05:43:59.121Z,511.00
2023-02-14T05:44:59.157Z,510.00
2023-02-14T05:45:59.288Z,519.00
2023-02-14T05:46:59.250Z,519.00
2023-02-14T05:47:59.319Z,515.00
2023-02-14T05:48:59.339Z,520.00
2023-02-14T05:49:59.357Z,513.00
2023-02-14T05:50:59.615Z,516.00
2023-02-14T05:51:59.450Z,514.00
2023-02-14T05:52:59.490Z,523.00
2023-02-14T05:53:59.535Z,523.00
2023-02-14T05:54:59.578Z,519.00
2023-02-14T05:55:59.625Z,516.00
2023-02-14T05:56:59.619Z,522.00
2023-02-14T05:57:59.695Z,522.00
2023-02-14T05:58:59.755Z,525.00
2023-02-14T05:59:59.738Z,526.00
2023-02-14T06:02:19.585Z,500.00
2023-02-14T06:03:19.482Z,500.00
2023-02-14T06:04:19.564Z,500.00
2023-02-14T06:05:19.422Z,500.00
2023-02-14T06:06:19.419Z,500.00
2023-02-14T06:07:19.420Z,501.00
2023-02-14T06:08:19.414Z,504.00
2023-02-14T06:09:19.390Z,501.00
2023-02-14T06:10:19.410Z,501.00
2023-02-14T06:11:19.406Z,509.00
2023-02-14T06:12:19.383Z,502.00
2023-02-14T06:13:19.402Z,508.00
2023-02-14T06:14:19.396Z,511.00
2023-02-14T06:15:19.368Z,508.00
2023-02-14T06:16:19.409Z,506.00
2023-02-14T06:17:19.334Z,510.00
2023-02-14T06:18:19.342Z,507.00
2023-02-14T06:19:19.326Z,503.00
2023-02-14T06:20:19.339Z,505.00
2023-02-14T06:21:19.308Z,500.00
2023-02-14T06:22:19.315Z,505.00
2023-02-14T06:23:19.284Z,508.00
2023-02-14T06:24:19.326Z,507.00
2023-02-14T06:25:19.331Z,515.00
2023-02-14T06:26:19.284Z,504.00
2023-02-14T06:27:19.276Z,507.00
2023-02-14T06:28:19.268Z,503.00
2023-02-14T06:29:19.285Z,510.00
2023-02-14T06:30:19.305Z,507.00
2023-02-14T06:31:19.358Z,510.00
2023-02-14T06:32:19.259Z,507.00
2023-02-14T06:33:19.246Z,504.00
2023-02-14T06:34:19.238Z,504.00
2023-02-14T06:35:19.229Z,508.00
2023-02-14T06:36:19.250Z,504.00
2023-02-14T06:37:19.224Z,508.00
2023-02-14T06:38:19.212Z,514.00
2023-02-14T06:39:19.183Z,514.00
2023-02-14T06:40:19.236Z,512.00
2023-02-14T06:41:19.243Z,506.00
2023-02-14T06:42:19.252Z,508.00
2023-02-14T06:43:19.162Z,503.00
2023-02-14T06:44:19.156Z,510.00
2023-02-14T06:45:26.152Z,506.00
2023-02-14T06:46:19.175Z,507.00
2023-02-14T06:47:19.176Z,507.00
2023-02-14T06:48:19.147Z,509.00
2023-02-14T06:49:19.172Z,508.00
2023-02-14T06:50:19.126Z,512.00
2023-02-14T06:51:19.128Z,510.00
2023-02-14T06:52:19.137Z,510.00
2023-02-14T06:53:19.106Z,500.00
2023-02-14T06:54:19.178Z,505.00
2023-02-14T06:55:19.072Z,505.00
2023-02-14T06:56:19.068Z,508.00
2023-02-14T06:57:19.068Z,509.00
2023-02-14T06:58:19.084Z,500.00
2023-02-14T06:59:19.077Z,509.00
2023-02-14T07:00:19.054Z,510.00
2023-02-14T07:01:19.090Z,508.00
2023-02-14T07:02:19.135Z,506.00
2023-02-14T07:03:19.038Z,500.00
2023-02-14T07:04:19.019Z,500.00
2023-02-14T07:05:19.190Z,506.00
2023-02-14T07:06:19.016Z,506.00
2023-02-14T07:07:19.022Z,510.00
2023-02-14T07:08:19.004Z,506.00
2023-02-14T07:09:18.991Z,509.00
2023-02-14T07:10:18.981Z,506.00
2023-02-14T07:11:18.992Z,505.00
2023-02-14T07:12:18.975Z,509.00
2023-02-14T07:13:18.973Z,507.00
2023-02-14T07:14:18.996Z,507.00
2023-02-14T07:15:19.046Z,507.00
2023-02-14T07:16:19.101Z,507.00
2023-02-14T07:17:19.173Z,505.00
2023-02-14T07:18:19.238Z,509.00
2023-02-14T07:19:19.213Z,505.00
2023-02-14T07:20:19.237Z,515.00
2023-02-14T07:21:19.248Z,508.00
2023-02-14T07:22:19.299Z,508.00
2023-02-14T07:23:19.388Z,507.00
2023-02-14T07:24:19.429Z,503.00
2023-02-14T07:25:19.420Z,506.00
2023-02-14T07:26:19.471Z,508.00
2023-02-14T07:27:19.538Z,505.00
2023-02-14T07:28:19.553Z,506.00
2023-02-14T07:29:19.614Z,505.00
2023-02-14T07:30:19.680Z,507.00
2023-02-14T07:31:19.735Z,503.00
2023-02-14T07:32:20.009Z,504.00
2023-02-14T07:33:19.749Z,507.00
2023-02-14T07:34:19.778Z,510.00
2023-02-14T07:35:19.819Z,503.00
2023-02-14T07:36:19.915Z,517.00
2023-02-14T07:37:19.858Z,557.00
2023-02-14T07:38:19.865Z,723.00
2023-02-14T07:39:19.895Z,1055.00
2023-02-14T07:40:19.979Z,1469.00
2023-02-14T07:41:19.980Z,1775.00
2023-02-14T07:42:19.974Z,2102.00
2023-02-14T07:43:20.272Z,2358.00
2023-02-14T07:44:20.080Z,2562.00
2023-02-14T07:45:21.971Z,2639.00
2023-02-14T07:46:20.190Z,2688.00
2023-02-14T07:47:20.120Z,2697.00
2023-02-14T07:48:20.204Z,2681.00
2023-02-14T07:49:20.208Z,2646.00
2023-02-14T07:50:20.215Z,2596.00
2023-02-14T07:51:20.272Z,2470.00
2023-02-14T07:52:20.335Z,2242.00
2023-02-14T07:53:20.338Z,1950.00
2023-02-14T07:54:20.469Z,1713.00
2023-02-14T07:55:20.419Z,1491.00
2023-02-14T07:56:20.444Z,1341.00
2023-02-14T07:57:20.474Z,1174.00
2023-02-14T07:58:20.505Z,1048.00
2023-02-14T07:59:20.525Z,942.00
2023-02-14T08:00:20.589Z,853.00
2023-02-14T08:01:20.642Z,787.00
2023-02-14T08:02:20.649Z,724.00
2023-02-14T08:03:20.626Z,673.00
2023-02-14T08:04:20.706Z,651.00
2023-02-14T08:05:20.757Z,636.00
2023-02-14T08:06:20.755Z,615.00
2023-02-14T08:07:20.755Z,602.00
2023-02-14T08:08:20.800Z,595.00
2023-02-14T08:09:20.847Z,574.00
2023-02-14T08:10:21.160Z,566.00
2023-02-14T08:11:20.875Z,563.00
2023-02-14T08:12:20.892Z,551.00
2023-02-14T08:13:20.973Z,543.00
2023-02-14T08:14:21.024Z,536.00
2023-02-14T08:15:21.113Z,528.00
2023-02-14T08:16:21.169Z,529.00
2023-02-14T08:17:21.146Z,521.00
2023-02-14T08:18:21.192Z,515.00
2023-02-14T08:19:21.188Z,513.00
2023-02-14T08:20:21.293Z,508.00
2023-02-14T08:21:21.235Z,503.00
2023-02-14T08:22:21.192Z,503.00
2023-02-14T08:23:21.195Z,503.00
2023-02-14T08:24:21.212Z,501.00
2023-02-14T08:25:21.258Z,503.00
2023-02-14T08:26:21.230Z,506.00
2023-02-14T08:27:21.221Z,500.00
2023-02-14T08:28:21.259Z,500.00
2023-02-14T08:29:21.232Z,500.00
2023-02-14T08:30:21.327Z,500.00
2023-02-14T08:31:29.957Z,523.00
2023-02-14T08:32:22.370Z,518.00
2023-02-14T08:33:21.259Z,516.00
2023-02-14T08:34:21.233Z,498.00
2023-02-14T08:35:21.221Z,494.00
2023-02-14T08:36:21.208Z,490.00
2023-02-14T08:37:21.198Z,506.00
2023-02-14T08:38:21.258Z,509.00
2023-02-14T08:39:21.222Z,519.00
2023-02-14T08:40:21.220Z,506.00
2023-02-14T08:41:21.216Z,511.00
2023-02-14T08:42:21.219Z,519.00
2023-02-14T08:44:21.172Z,515.00
2023-02-14T08:45:21.204Z,513.00
2023-02-14T08:46:21.219Z,513.00
2023-02-14T08:47:21.185Z,517.00
2023-02-14T08:48:21.159Z,513.00
2023-02-14T08:50:21.134Z,519.00
2023-02-14T08:51:21.132Z,510.00
2023-02-14T08:52:21.128Z,504.00
2023-02-14T08:53:21.143Z,520.00
2023-02-14T08:56:21.182Z,518.00
2023-02-14T08:57:21.205Z,516.00
2023-02-14T08:58:21.316Z,516.00
2023-02-14T09:00:21.259Z,509.00
2023-02-14T09:01:21.346Z,513.00
2023-02-14T09:02:21.338Z,505.00
2023-02-14T09:04:21.505Z,508.00
2023-02-14T09:05:21.443Z,506.00
2023-02-14T09:06:21.514Z,507.00
2023-02-14T09:07:21.466Z,507.00
2023-02-14T09:08:21.536Z,504.00
2023-02-14T09:09:21.509Z,505.00
2023-02-14T09:10:21.987Z,507.00
2023-02-14T09:11:21.593Z,513.00
2023-02-14T09:12:21.595Z,510.00
2023-02-14T09:13:21.594Z,511.00
2023-02-14T09:14:21.607Z,501.00
2023-02-14T09:15:21.675Z,508.00
2023-02-14T09:16:21.727Z,503.00
2023-02-14T09:17:21.679Z,510.00
2023-02-14T09:18:21.708Z,510.00
2023-02-14T09:19:21.753Z,512.00
2023-02-14T09:20:21.706Z,509.00
2023-02-14T09:21:21.754Z,511.00
2023-02-14T09:22:21.746Z,511.00
2023-02-14T09:23:21.765Z,510.00
2023-02-14T09:24:21.751Z,510.00
2023-02-14T09:25:21.799Z,509.00
2023-02-14T09:26:21.775Z,506.00
2023-02-14T09:27:21.787Z,509.00
2023-02-14T09:28:21.900Z,508.00
2023-02-14T09:29:21.846Z,511.00
2023-02-14T09:30:21.958Z,505.00
2023-02-14T09:31:21.998Z,510.00
2023-02-14T09:32:21.979Z,510.00
2023-02-14T09:33:21.925Z,508.00
2023-02-14T09:34:21.927Z,511.00
2023-02-14T09:35:21.899Z,511.00
2023-02-14T09:36:21.894Z,509.00
2023-02-14T09:37:21.903Z,509.00
2023-02-14T09:38:21.921Z,505.00
2023-02-14T09:39:21.958Z,511.00
2023-02-14T09:40:21.997Z,509.00
2023-02-14T09:41:21.992Z,510.00
2023-02-14T09:42:21.990Z,509.00
2023-02-14T09:43:22.019Z,505.00
2023-02-14T09:44:22.011Z,506.00
2023-02-14T09:45:22.072Z,506.00
2023-02-14T09:46:22.136Z,505.00
2023-02-14T09:47:22.053Z,503.00
2023-02-14T09:48:22.048Z,503.00
2023-02-14T09:49:22.263Z,509.00
2023-02-14T09:50:22.101Z,510.00
2023-02-14T09:51:22.134Z,511.00
2023-02-14T09:52:22.116Z,506.00
2023-02-14T09:53:22.124Z,509.00
2023-02-14T09:54:22.188Z,506.00
2023-02-14T09:55:22.188Z,503.00
2023-02-14T09:56:22.188Z,513.00
2023-02-14T09:57:22.209Z,511.00
2023-02-14T09:58:22.207Z,515.00
2023-02-14T09:59:22.243Z,511.00
2023-02-14T10:00:22.282Z,507.00
2023-02-14T10:01:22.289Z,507.00
2023-02-14T10:02:22.339Z,504.00
2023-02-14T10:03:22.294Z,507.00
2023-02-14T10:04:22.289Z,508.00
2023-02-14T10:05:22.348Z,509.00
2023-02-14T10:06:22.314Z,508.00
2023-02-14T10:07:22.363Z,513.00
2023-02-14T10:08:22.412Z,510.00
2023-02-14T10:09:22.369Z,509.00
2023-02-14T10:10:22.459Z,510.00
2023-02-14T10:11:22.456Z,516.00
2023-02-14T10:12:22.465Z,512.00
2023-02-14T10:13:22.508Z,508.00
2023-02-14T10:14:22.517Z,511.00
2023-02-14T10:50:23.199Z,504.00
2023-02-14T10:51:23.246Z,503.00
2023-02-14T10:52:23.296Z,500.00
2023-02-14T10:53:23.268Z,500.00
2023-02-14T10:54:23.298Z,501.00
2023-02-14T10:55:32.010Z,506.00
2023-02-14T10:56:24.294Z,506.00
2023-02-14T10:57:23.266Z,504.00
2023-02-14T10:58:23.251Z,500.00
2023-02-14T10:59:23.266Z,497.00
2023-02-14T11:00:23.290Z,493.00
2023-02-14T11:01:23.296Z,502.00
2023-02-14T11:02:23.253Z,499.00
2023-02-14T11:03:23.317Z,506.00
2023-02-14T11:04:23.271Z,500.00
2023-02-14T11:05:23.222Z,500.00
2023-02-14T11:06:23.236Z,503.00
2023-02-14T11:07:23.238Z,503.00
2023-02-14T11:08:23.222Z,504.00
2023-02-14T11:09:23.206Z,509.00
2023-02-14T11:10:23.227Z,506.00
2023-02-14T11:11:23.225Z,504.00
2023-02-14T11:12:23.181Z,504.00
2023-02-14T11:13:23.188Z,502.00
2023-02-14T11:14:23.189Z,500.00
2023-02-14T11:15:23.189Z,503.00
2023-02-14T11:16:23.198Z,504.00
2023-02-14T11:21:23.183Z,508.00
2023-02-14T11:22:23.187Z,509.00
2023-02-14T11:23:23.162Z,504.00
2023-02-14T11:24:23.187Z,506.00
2023-02-14T11:25:23.215Z,503.00
2023-02-14T11:26:23.218Z,506.00
2023-02-14T11:27:23.219Z,508.00
2023-02-14T11:44:23.574Z,520.00
2023-02-14T11:45:23.565Z,524.00
2023-02-14T11:46:23.673Z,522.00
2023-02-14T11:47:23.606Z,522.00
2023-02-14T11:48:39.521Z,523.00
2023-02-14T11:51:23.610Z,521.00
2023-02-14T11:55:23.569Z,517.00
2023-02-14T11:56:23.566Z,525.00
2023-02-14T11:57:23.544Z,521.00
2023-02-14T11:58:23.583Z,519.00
2023-02-14T11:59:23.541Z,518.00
2023-02-14T12:04:23.520Z,516.00
2023-02-14T12:05:23.511Z,519.00
2023-02-14T12:06:23.515Z,517.00
2023-02-14T12:07:23.482Z,516.00
2023-02-14T12:08:23.498Z,514.00
2023-02-14T12:09:23.456Z,506.00
2023-02-14T12:10:23.451Z,511.00
2023-02-14T12:11:23.496Z,523.00
2023-02-14T12:12:23.450Z,518.00
2023-02-14T12:13:23.465Z,516.00
2023-02-14T12:14:23.500Z,518.00
2023-02-14T12:15:23.566Z,521.00
2023-02-14T12:16:23.558Z,523.00
2023-02-14T12:17:23.567Z,513.00
2023-02-14T12:36:24.035Z,515.00
2023-02-14T12:37:24.047Z,516.00
2023-02-14T12:45:24.215Z,522.00
2023-02-14T12:46:24.283Z,518.00
2023-02-14T12:47:24.287Z,505.00
2023-02-14T12:48:24.282Z,512.00
2023-02-14T12:55:24.481Z,516.00
2023-02-14T13:01:28.970Z,514.00
2023-02-14T13:02:25.745Z,514.00
2023-02-14T13:03:24.619Z,507.00
2023-02-14T13:04:24.615Z,505.00
2023-02-14T13:09:24.602Z,513.00
2023-02-14T13:10:24.579Z,508.00
2023-02-14T13:11:24.547Z,510.00
2023-02-14T13:12:24.564Z,501.00
2023-02-14T13:13:24.558Z,503.00
2023-02-14T13:14:24.570Z,510.00
2023-02-14T13:15:24.578Z,504.00
2023-02-14T13:16:24.664Z,505.00
2023-02-14T13:17:24.622Z,510.00
2023-02-14T13:18:24.669Z,508.00
2023-02-14T13:19:24.697Z,506.00
2023-02-14T13:20:24.732Z,512.00
2023-02-14T13:21:24.777Z,505.00
2023-02-14T13:22:24.784Z,504.00
2023-02-14T13:23:24.827Z,503.00
2023-02-14T13:24:24.847Z,509.00
2023-02-14T13:25:24.880Z,501.00
2023-02-14T13:26:24.919Z,506.00
2023-02-14T13:27:24.966Z,505.00
2023-02-14T13:28:24.984Z,506.00
2023-02-14T13:29:25.015Z,513.00
2023-02-14T13:30:25.155Z,506.00
2023-02-14T13:31:25.158Z,508.00
2023-02-14T13:32:25.147Z,508.00
2023-02-14T13:33:25.138Z,503.00
2023-02-14T13:34:25.211Z,502.00
2023-02-14T13:35:25.228Z,506.00
2023-02-14T13:36:25.278Z,503.00
2023-02-14T13:37:25.285Z,510.00
2023-02-14T13:38:25.344Z,512.00
2023-02-14T13:39:25.376Z,505.00
2023-02-14T13:40:25.405Z,503.00
2023-02-14T13:41:25.472Z,504.00
2023-02-14T13:42:25.771Z,509.00
2023-02-14T13:43:25.501Z,508.00
2023-02-14T13:44:25.550Z,511.00
2023-02-14T13:45:25.585Z,500.00
2023-02-14T13:46:25.652Z,507.00
2023-02-14T13:47:25.649Z,510.00
2023-02-14T13:48:25.671Z,507.00
2023-02-14T13:49:25.715Z,511.00
2023-02-14T13:50:25.781Z,507.00
2023-02-14T13:51:25.818Z,509.00
2023-02-14T13:52:26.083Z,500.00
2023-02-14T13:53:25.877Z,501.00
2023-02-14T13:54:25.962Z,506.00
2023-02-14T13:55:25.984Z,504.00
2023-02-14T13:56:26.022Z,513.00
2023-02-14T13:57:26.130Z,507.00
2023-02-14T13:58:26.152Z,508.00
2023-02-14T13:59:26.168Z,504.00
2023-02-14T14:00:26.216Z,517.00
2023-02-14T14:01:26.783Z,516.00
2023-02-14T14:02:28.318Z,516.00
2023-02-14T14:03:26.281Z,513.00
2023-02-14T14:04:26.301Z,510.00
2023-02-14T14:05:26.272Z,510.00
2023-02-14T14:06:26.296Z,502.00
2023-02-14T14:07:26.355Z,514.00
2023-02-14T14:08:26.256Z,516.00
2023-02-14T14:09:26.325Z,521.00
2023-02-14T14:10:26.232Z,518.00
2023-02-14T14:11:26.229Z,521.00
2023-02-14T14:12:26.226Z,524.00
2023-02-14T14:13:26.222Z,516.00
2023-02-14T14:14:26.202Z,520.00
2023-02-14T14:15:26.216Z,519.00
2023-02-14T14:16:26.221Z,525.00
2023-02-14T14:17:26.342Z,525.00
2023-02-14T14:18:26.187Z,523.00
2023-02-14T14:19:26.169Z,520.00
2023-02-14T14:20:26.180Z,521.00
2023-02-14T14:21:26.186Z,520.00
2023-02-14T14:22:26.153Z,520.00
2023-02-14T14:23:26.169Z,519.00
2023-02-14T14:24:26.176Z,524.00
2023-02-14T14:25:26.166Z,527.00
2023-02-14T14:26:26.110Z,520.00
2023-02-14T14:27:26.124Z,524.00
2023-02-14T14:28:26.118Z,518.00
2023-02-14T14:29:26.146Z,524.00
2023-02-14T14:30:26.133Z,520.00
2023-02-14T14:31:26.208Z,523.00
2023-02-14T14:32:26.126Z,518.00